sensor_id;sensor_type;location;lat;lon;timestamp;P1;durP1;ratioP1;P2;durP2;ratioP2
4517;SDS011;2271;49.464;11.070;2022-07-22T00:00:01;6.22;;;5.50;;
4517;SDS011;2271;49.464;11.070;2022-07-22T00:02:28;7.63;;;5.45;;
4517;SDS011;2271;49.464;11.070;2022-07-22T00:04:53;8.60;;;5.60;;
4517;SDS011;2271;49.464;11.070;2022-07-22T00:07:19;5.60;;;5.05;;
4517;SDS011;2271;49.464;11.070;2022-07-22T00:09:45;7.38;;;5.30;;
4517;SDS011;2271;49.464;11.070;2022-07-22T00:12:10;5.68;;;5.07;;
4517;SDS011;2271;49.464;11.070;2022-07-22T00:14:36;10.93;;;5.18;;
4517;SDS011;2271;49.464;11.070;2022-07-22T00:17:02;6.43;;;5.30;;
4517;SDS011;2271;49.464;11.070;2022-07-22T00:19:28;5.88;;;4.82;;
4517;SDS011;2271;49.464;11.070;2022-07-22T00:21:54;6.20;;;5.10;;
4517;SDS011;2271;49.464;11.070;2022-07-22T00:24:19;8.13;;;5.00;;
4517;SDS011;2271;49.464;11.070;2022-07-22T00:26:45;5.50;;;5.00;;
4517;SDS011;2271;49.464;11.070;2022-07-22T00:29:10;5.88;;;4.90;;
4517;SDS011;2271;49.464;11.070;2022-07-22T00:31:36;6.25;;;5.13;;
4517;SDS011;2271;49.464;11.070;2022-07-22T00:34:02;7.68;;;4.78;;
4517;SDS011;2271;49.464;11.070;2022-07-22T00:36:28;5.25;;;4.75;;
4517;SDS011;2271;49.464;11.070;2022-07-22T00:38:55;8.07;;;4.60;;
4517;SDS011;2271;49.464;11.070;2022-07-22T00:41:21;6.00;;;5.40;;
4517;SDS011;2271;49.464;11.070;2022-07-22T00:46:26;6.75;;;5.93;;
4517;SDS011;2271;49.464;11.070;2022-07-22T00:48:53;9.27;;;6.10;;
4517;SDS011;2271;49.464;11.070;2022-07-22T00:51:19;8.30;;;6.03;;
4517;SDS011;2271;49.464;11.070;2022-07-22T00:53:47;8.82;;;5.93;;
4517;SDS011;2271;49.464;11.070;2022-07-22T00:56:13;7.35;;;5.13;;
4517;SDS011;2271;49.464;11.070;2022-07-22T00:58:40;5.40;;;4.78;;
4517;SDS011;2271;49.464;11.070;2022-07-22T01:01:06;6.55;;;5.45;;
4517;SDS011;2271;49.464;11.070;2022-07-22T01:03:32;6.63;;;5.38;;
4517;SDS011;2271;49.464;11.070;2022-07-22T01:05:57;5.55;;;5.05;;
4517;SDS011;2271;49.464;11.070;2022-07-22T01:08:23;6.13;;;4.95;;
4517;SDS011;2271;49.464;11.070;2022-07-22T01:10:49;5.25;;;4.75;;
4517;SDS011;2271;49.464;11.070;2022-07-22T01:13:15;5.68;;;5.15;;
4517;SDS011;2271;49.464;11.070;2022-07-22T01:15:40;7.50;;;5.10;;
4517;SDS011;2271;49.464;11.070;2022-07-22T01:18:06;6.32;;;5.30;;
4517;SDS011;2271;49.464;11.070;2022-07-22T01:20:32;8.23;;;4.75;;
4517;SDS011;2271;49.464;11.070;2022-07-22T01:22:58;7.55;;;5.00;;
4517;SDS011;2271;49.464;11.070;2022-07-22T01:25:24;6.07;;;4.85;;
4517;SDS011;2271;49.464;11.070;2022-07-22T01:27:50;5.88;;;5.03;;
4517;SDS011;2271;49.464;11.070;2022-07-22T01:30:16;5.53;;;5.03;;
4517;SDS011;2271;49.464;11.070;2022-07-22T01:32:42;8.50;;;4.97;;
4517;SDS011;2271;49.464;11.070;2022-07-22T01:35:07;7.25;;;5.85;;
4517;SDS011;2271;49.464;11.070;2022-07-22T01:37:33;7.25;;;5.05;;
4517;SDS011;2271;49.464;11.070;2022-07-22T01:39:59;6.10;;;5.55;;
4517;SDS011;2271;49.464;11.070;2022-07-22T01:42:25;5.47;;;4.97;;
4517;SDS011;2271;49.464;11.070;2022-07-22T01:44:51;5.72;;;5.07;;
4517;SDS011;2271;49.464;11.070;2022-07-22T01:47:17;6.20;;;5.50;;
4517;SDS011;2271;49.464;11.070;2022-07-22T01:49:42;9.25;;;4.80;;
4517;SDS011;2271;49.464;11.070;2022-07-22T01:52:08;6.45;;;5.80;;
4517;SDS011;2271;49.464;11.070;2022-07-22T01:54:34;6.07;;;5.35;;
4517;SDS011;2271;49.464;11.070;2022-07-22T01:57:00;6.03;;;4.85;;
4517;SDS011;2271;49.464;11.070;2022-07-22T01:59:26;8.52;;;5.55;;
4517;SDS011;2271;49.464;11.070;2022-07-22T02:01:51;6.28;;;5.65;;
4517;SDS011;2271;49.464;11.070;2022-07-22T02:04:17;6.65;;;5.45;;
4517;SDS011;2271;49.464;11.070;2022-07-22T02:06:43;6.07;;;5.10;;
4517;SDS011;2271;49.464;11.070;2022-07-22T02:09:08;7.38;;;5.80;;
4517;SDS011;2271;49.464;11.070;2022-07-22T02:11:34;6.50;;;5.13;;
4517;SDS011;2271;49.464;11.070;2022-07-22T02:14:00;5.63;;;4.95;;
4517;SDS011;2271;49.464;11.070;2022-07-22T02:16:26;6.95;;;5.40;;
4517;SDS011;2271;49.464;11.070;2022-07-22T02:18:52;10.00;;;5.82;;
4517;SDS011;2271;49.464;11.070;2022-07-22T02:21:18;6.68;;;6.07;;
4517;SDS011;2271;49.464;11.070;2022-07-22T02:23:44;8.70;;;5.53;;
4517;SDS011;2271;49.464;11.070;2022-07-22T02:26:09;5.75;;;5.10;;
4517;SDS011;2271;49.464;11.070;2022-07-22T02:28:35;6.00;;;5.40;;
4517;SDS011;2271;49.464;11.070;2022-07-22T02:31:01;6.35;;;5.75;;
4517;SDS011;2271;49.464;11.070;2022-07-22T02:33:27;7.13;;;6.28;;
4517;SDS011;2271;49.464;11.070;2022-07-22T02:35:54;6.55;;;5.93;;
4517;SDS011;2271;49.464;11.070;2022-07-22T02:38:20;8.00;;;6.15;;
4517;SDS011;2271;49.464;11.070;2022-07-22T02:40:46;7.63;;;5.65;;
4517;SDS011;2271;49.464;11.070;2022-07-22T02:43:12;7.82;;;6.32;;
4517;SDS011;2271;49.464;11.070;2022-07-22T02:45:37;6.97;;;5.43;;
4517;SDS011;2271;49.464;11.070;2022-07-22T02:48:03;7.55;;;6.28;;
4517;SDS011;2271;49.464;11.070;2022-07-22T02:50:29;7.18;;;6.47;;
4517;SDS011;2271;49.464;11.070;2022-07-22T02:52:55;8.52;;;6.43;;
4517;SDS011;2271;49.464;11.070;2022-07-22T02:55:20;7.13;;;5.32;;
4517;SDS011;2271;49.464;11.070;2022-07-22T02:57:46;6.88;;;6.10;;
4517;SDS011;2271;49.464;11.070;2022-07-22T03:00:12;6.72;;;5.93;;
4517;SDS011;2271;49.464;11.070;2022-07-22T03:02:38;9.68;;;6.75;;
4517;SDS011;2271;49.464;11.070;2022-07-22T03:05:04;7.95;;;6.10;;
4517;SDS011;2271;49.464;11.070;2022-07-22T03:07:31;8.68;;;5.93;;
4517;SDS011;2271;49.464;11.070;2022-07-22T03:09:57;7.57;;;6.03;;
4517;SDS011;2271;49.464;11.070;2022-07-22T03:12:23;6.40;;;5.75;;
4517;SDS011;2271;49.464;11.070;2022-07-22T03:14:49;8.45;;;6.22;;
4517;SDS011;2271;49.464;11.070;2022-07-22T03:17:15;10.02;;;6.28;;
4517;SDS011;2271;49.464;11.070;2022-07-22T03:19:40;7.38;;;5.72;;
4517;SDS011;2271;49.464;11.070;2022-07-22T03:22:06;7.13;;;6.32;;
4517;SDS011;2271;49.464;11.070;2022-07-22T03:24:32;6.60;;;6.10;;
4517;SDS011;2271;49.464;11.070;2022-07-22T03:26:59;7.28;;;6.57;;
4517;SDS011;2271;49.464;11.070;2022-07-22T03:29:24;9.50;;;6.25;;
4517;SDS011;2271;49.464;11.070;2022-07-22T03:31:50;7.65;;;6.38;;
4517;SDS011;2271;49.464;11.070;2022-07-22T03:34:16;11.23;;;6.38;;
4517;SDS011;2271;49.464;11.070;2022-07-22T03:36:41;11.18;;;6.70;;
4517;SDS011;2271;49.464;11.070;2022-07-22T03:39:07;8.50;;;6.00;;
4517;SDS011;2271;49.464;11.070;2022-07-22T03:41:32;6.75;;;5.97;;
4517;SDS011;2271;49.464;11.070;2022-07-22T03:43:58;6.60;;;5.85;;
4517;SDS011;2271;49.464;11.070;2022-07-22T03:46:24;10.45;;;7.03;;
4517;SDS011;2271;49.464;11.070;2022-07-22T03:48:49;5.70;;;5.22;;
4517;SDS011;2271;49.464;11.070;2022-07-22T03:51:15;8.90;;;6.15;;
4517;SDS011;2271;49.464;11.070;2022-07-22T03:53:41;6.25;;;5.10;;
4517;SDS011;2271;49.464;11.070;2022-07-22T03:56:06;7.50;;;5.93;;
4517;SDS011;2271;49.464;11.070;2022-07-22T03:58:32;6.68;;;5.53;;
4517;SDS011;2271;49.464;11.070;2022-07-22T04:00:58;5.75;;;5.22;;
4517;SDS011;2271;49.464;11.070;2022-07-22T04:03:24;8.05;;;5.75;;
4517;SDS011;2271;49.464;11.070;2022-07-22T04:05:49;8.18;;;6.32;;
4517;SDS011;2271;49.464;11.070;2022-07-22T04:08:16;6.47;;;5.88;;
4517;SDS011;2271;49.464;11.070;2022-07-22T04:10:43;7.03;;;5.75;;
4517;SDS011;2271;49.464;11.070;2022-07-22T04:13:09;9.73;;;6.53;;
4517;SDS011;2271;49.464;11.070;2022-07-22T04:15:35;10.93;;;6.57;;
4517;SDS011;2271;49.464;11.070;2022-07-22T04:18:00;9.73;;;6.05;;
4517;SDS011;2271;49.464;11.070;2022-07-22T04:20:26;10.60;;;6.72;;
4517;SDS011;2271;49.464;11.070;2022-07-22T04:22:51;11.88;;;6.90;;
4517;SDS011;2271;49.464;11.070;2022-07-22T04:25:18;8.85;;;5.53;;
4517;SDS011;2271;49.464;11.070;2022-07-22T04:27:44;14.35;;;6.38;;
4517;SDS011;2271;49.464;11.070;2022-07-22T04:30:09;7.93;;;6.50;;
4517;SDS011;2271;49.464;11.070;2022-07-22T04:32:35;9.60;;;5.22;;
4517;SDS011;2271;49.464;11.070;2022-07-22T04:35:01;8.07;;;6.30;;
4517;SDS011;2271;49.464;11.070;2022-07-22T04:37:27;7.38;;;5.63;;
4517;SDS011;2271;49.464;11.070;2022-07-22T04:39:52;7.82;;;6.63;;
4517;SDS011;2271;49.464;11.070;2022-07-22T04:42:18;6.82;;;6.13;;
4517;SDS011;2271;49.464;11.070;2022-07-22T04:44:43;7.10;;;5.50;;
4517;SDS011;2271;49.464;11.070;2022-07-22T04:47:09;6.55;;;5.75;;
4517;SDS011;2271;49.464;11.070;2022-07-22T04:49:36;9.00;;;6.30;;
4517;SDS011;2271;49.464;11.070;2022-07-22T04:52:01;7.30;;;6.20;;
4517;SDS011;2271;49.464;11.070;2022-07-22T04:54:28;7.35;;;5.57;;
4517;SDS011;2271;49.464;11.070;2022-07-22T04:56:53;6.65;;;5.32;;
4517;SDS011;2271;49.464;11.070;2022-07-22T04:59:19;7.38;;;6.07;;
4517;SDS011;2271;49.464;11.070;2022-07-22T05:01:45;11.70;;;6.35;;
4517;SDS011;2271;49.464;11.070;2022-07-22T05:04:10;7.75;;;6.65;;
4517;SDS011;2271;49.464;11.070;2022-07-22T05:06:36;6.82;;;6.20;;
4517;SDS011;2271;49.464;11.070;2022-07-22T05:09:02;8.45;;;6.38;;
4517;SDS011;2271;49.464;11.070;2022-07-22T05:11:28;6.95;;;6.30;;
4517;SDS011;2271;49.464;11.070;2022-07-22T05:13:54;6.68;;;6.07;;
4517;SDS011;2271;49.464;11.070;2022-07-22T05:16:19;6.38;;;5.75;;
4517;SDS011;2271;49.464;11.070;2022-07-22T05:18:45;6.50;;;5.90;;
4517;SDS011;2271;49.464;11.070;2022-07-22T05:21:10;11.10;;;6.75;;
4517;SDS011;2271;49.464;11.070;2022-07-22T05:23:36;8.80;;;6.13;;
4517;SDS011;2271;49.464;11.070;2022-07-22T05:26:03;6.80;;;6.10;;
4517;SDS011;2271;49.464;11.070;2022-07-22T05:28:29;8.73;;;5.53;;
4517;SDS011;2271;49.464;11.070;2022-07-22T05:30:55;7.88;;;5.97;;
4517;SDS011;2271;49.464;11.070;2022-07-22T05:33:21;7.88;;;6.25;;
4517;SDS011;2271;49.464;11.070;2022-07-22T05:35:46;6.28;;;5.65;;
4517;SDS011;2271;49.464;11.070;2022-07-22T05:38:12;9.75;;;6.43;;
4517;SDS011;2271;49.464;11.070;2022-07-22T05:40:38;7.10;;;6.38;;
4517;SDS011;2271;49.464;11.070;2022-07-22T05:43:03;9.55;;;6.32;;
4517;SDS011;2271;49.464;11.070;2022-07-22T05:45:29;12.10;;;6.28;;
4517;SDS011;2271;49.464;11.070;2022-07-22T05:47:55;8.82;;;6.22;;
4517;SDS011;2271;49.464;11.070;2022-07-22T05:50:21;6.82;;;6.05;;
4517;SDS011;2271;49.464;11.070;2022-07-22T05:52:46;7.63;;;5.68;;
4517;SDS011;2271;49.464;11.070;2022-07-22T05:55:12;6.47;;;5.57;;
4517;SDS011;2271;49.464;11.070;2022-07-22T05:57:37;7.65;;;6.07;;
4517;SDS011;2271;49.464;11.070;2022-07-22T06:00:04;6.88;;;5.65;;
4517;SDS011;2271;49.464;11.070;2022-07-22T06:02:31;7.97;;;5.80;;
4517;SDS011;2271;49.464;11.070;2022-07-22T06:04:56;8.00;;;5.82;;
4517;SDS011;2271;49.464;11.070;2022-07-22T06:07:23;6.75;;;5.55;;
4517;SDS011;2271;49.464;11.070;2022-07-22T06:09:51;7.80;;;5.55;;
4517;SDS011;2271;49.464;11.070;2022-07-22T06:12:17;6.88;;;6.03;;
4517;SDS011;2271;49.464;11.070;2022-07-22T06:14:42;6.97;;;5.63;;
4517;SDS011;2271;49.464;11.070;2022-07-22T06:17:08;6.80;;;5.82;;
4517;SDS011;2271;49.464;11.070;2022-07-22T06:19:34;6.15;;;5.55;;
4517;SDS011;2271;49.464;11.070;2022-07-22T06:21:59;5.78;;;5.18;;
4517;SDS011;2271;49.464;11.070;2022-07-22T06:24:25;8.68;;;6.60;;
4517;SDS011;2271;49.464;11.070;2022-07-22T06:26:51;8.45;;;5.90;;
4517;SDS011;2271;49.464;11.070;2022-07-22T06:29:17;8.15;;;5.95;;
4517;SDS011;2271;49.464;11.070;2022-07-22T06:31:42;7.20;;;6.15;;
4517;SDS011;2271;49.464;11.070;2022-07-22T06:34:08;7.30;;;6.07;;
4517;SDS011;2271;49.464;11.070;2022-07-22T06:36:34;10.88;;;7.28;;
4517;SDS011;2271;49.464;11.070;2022-07-22T06:38:59;7.97;;;6.32;;
4517;SDS011;2271;49.464;11.070;2022-07-22T06:41:25;8.70;;;6.18;;
4517;SDS011;2271;49.464;11.070;2022-07-22T06:43:51;7.22;;;6.10;;
4517;SDS011;2271;49.464;11.070;2022-07-22T06:46:17;7.47;;;6.07;;
4517;SDS011;2271;49.464;11.070;2022-07-22T06:48:42;8.80;;;6.00;;
4517;SDS011;2271;49.464;11.070;2022-07-22T06:51:08;7.35;;;6.45;;
4517;SDS011;2271;49.464;11.070;2022-07-22T06:53:34;9.82;;;7.03;;
4517;SDS011;2271;49.464;11.070;2022-07-22T06:55:59;6.43;;;5.53;;
4517;SDS011;2271;49.464;11.070;2022-07-22T06:58:25;7.07;;;6.32;;
4517;SDS011;2271;49.464;11.070;2022-07-22T07:00:51;8.93;;;5.72;;
4517;SDS011;2271;49.464;11.070;2022-07-22T07:03:16;8.38;;;6.20;;
4517;SDS011;2271;49.464;11.070;2022-07-22T07:05:42;8.75;;;6.13;;
4517;SDS011;2271;49.464;11.070;2022-07-22T07:08:08;6.88;;;6.03;;
4517;SDS011;2271;49.464;11.070;2022-07-22T07:10:34;11.00;;;5.75;;
4517;SDS011;2271;49.464;11.070;2022-07-22T07:12:59;6.75;;;6.05;;
4517;SDS011;2271;49.464;11.070;2022-07-22T07:15:25;11.30;;;6.68;;
4517;SDS011;2271;49.464;11.070;2022-07-22T07:17:52;10.30;;;6.32;;
4517;SDS011;2271;49.464;11.070;2022-07-22T07:20:19;10.20;;;7.88;;
4517;SDS011;2271;49.464;11.070;2022-07-22T07:22:45;11.15;;;7.30;;
4517;SDS011;2271;49.464;11.070;2022-07-22T07:25:11;9.15;;;6.80;;
4517;SDS011;2271;49.464;11.070;2022-07-22T07:27:37;7.30;;;6.38;;
4517;SDS011;2271;49.464;11.070;2022-07-22T07:30:05;11.02;;;6.95;;
4517;SDS011;2271;49.464;11.070;2022-07-22T07:32:33;7.80;;;6.40;;
4517;SDS011;2271;49.464;11.070;2022-07-22T07:34:59;9.25;;;7.72;;
4517;SDS011;2271;49.464;11.070;2022-07-22T07:37:26;8.57;;;7.70;;
4517;SDS011;2271;49.464;11.070;2022-07-22T07:39:51;9.30;;;7.10;;
4517;SDS011;2271;49.464;11.070;2022-07-22T07:42:17;7.53;;;6.60;;
4517;SDS011;2271;49.464;11.070;2022-07-22T07:44:42;11.98;;;6.90;;
4517;SDS011;2271;49.464;11.070;2022-07-22T07:47:08;12.27;;;6.70;;
4517;SDS011;2271;49.464;11.070;2022-07-22T07:49:34;8.60;;;5.60;;
4517;SDS011;2271;49.464;11.070;2022-07-22T07:51:59;6.57;;;5.72;;
4517;SDS011;2271;49.464;11.070;2022-07-22T07:54:25;9.10;;;6.82;;
4517;SDS011;2271;49.464;11.070;2022-07-22T07:56:51;6.90;;;6.18;;
4517;SDS011;2271;49.464;11.070;2022-07-22T07:59:17;7.53;;;6.45;;
4517;SDS011;2271;49.464;11.070;2022-07-22T08:01:43;8.20;;;6.50;;
4517;SDS011;2271;49.464;11.070;2022-07-22T08:04:08;13.60;;;5.97;;
4517;SDS011;2271;49.464;11.070;2022-07-22T08:06:34;7.20;;;6.50;;
4517;SDS011;2271;49.464;11.070;2022-07-22T08:09:00;6.57;;;5.97;;
4517;SDS011;2271;49.464;11.070;2022-07-22T08:11:26;7.50;;;5.50;;
4517;SDS011;2271;49.464;11.070;2022-07-22T08:13:51;7.78;;;6.00;;
4517;SDS011;2271;49.464;11.070;2022-07-22T08:16:17;7.88;;;6.20;;
4517;SDS011;2271;49.464;11.070;2022-07-22T08:18:43;6.75;;;6.05;;
4517;SDS011;2271;49.464;11.070;2022-07-22T08:21:09;7.97;;;5.75;;
4517;SDS011;2271;49.464;11.070;2022-07-22T08:23:34;9.15;;;7.10;;
4517;SDS011;2271;49.464;11.070;2022-07-22T08:26:00;6.45;;;5.28;;
4517;SDS011;2271;49.464;11.070;2022-07-22T08:28:26;7.50;;;5.97;;
4517;SDS011;2271;49.464;11.070;2022-07-22T08:30:52;6.53;;;5.03;;
4517;SDS011;2271;49.464;11.070;2022-07-22T08:33:18;8.07;;;6.13;;
4517;SDS011;2271;49.464;11.070;2022-07-22T08:35:44;6.65;;;5.20;;
4517;SDS011;2271;49.464;11.070;2022-07-22T08:38:09;7.45;;;5.30;;
4517;SDS011;2271;49.464;11.070;2022-07-22T08:40:35;6.88;;;5.80;;
4517;SDS011;2271;49.464;11.070;2022-07-22T08:43:01;8.27;;;5.18;;
4517;SDS011;2271;49.464;11.070;2022-07-22T08:45:30;7.43;;;4.63;;
4517;SDS011;2271;49.464;11.070;2022-07-22T08:47:56;7.60;;;5.18;;
4517;SDS011;2271;49.464;11.070;2022-07-22T08:50:24;6.13;;;5.30;;
4517;SDS011;2271;49.464;11.070;2022-07-22T08:52:50;8.30;;;5.25;;
4517;SDS011;2271;49.464;11.070;2022-07-22T08:55:16;6.78;;;5.30;;
4517;SDS011;2271;49.464;11.070;2022-07-22T08:57:48;8.00;;;5.25;;
4517;SDS011;2271;49.464;11.070;2022-07-22T09:00:15;8.02;;;4.97;;
4517;SDS011;2271;49.464;11.070;2022-07-22T09:02:43;6.28;;;4.88;;
4517;SDS011;2271;49.464;11.070;2022-07-22T09:05:09;7.60;;;5.00;;
4517;SDS011;2271;49.464;11.070;2022-07-22T09:07:39;6.82;;;4.93;;
4517;SDS011;2271;49.464;11.070;2022-07-22T09:10:08;5.90;;;5.30;;
4517;SDS011;2271;49.464;11.070;2022-07-22T09:12:36;7.25;;;6.03;;
4517;SDS011;2271;49.464;11.070;2022-07-22T09:16:06;7.25;;;5.00;;
4517;SDS011;2271;49.464;11.070;2022-07-22T09:18:14;5.30;;;4.20;;
4517;SDS011;2271;49.464;11.070;2022-07-22T09:20:40;5.43;;;4.93;;
4517;SDS011;2271;49.464;11.070;2022-07-22T09:23:09;5.22;;;4.72;;
4517;SDS011;2271;49.464;11.070;2022-07-22T09:25:42;8.25;;;4.53;;
4517;SDS011;2271;49.464;11.070;2022-07-22T09:30:34;9.98;;;4.65;;
4517;SDS011;2271;49.464;11.070;2022-07-22T09:33:20;7.25;;;4.47;;
4517;SDS011;2271;49.464;11.070;2022-07-22T09:35:46;6.45;;;5.85;;
4517;SDS011;2271;49.464;11.070;2022-07-22T09:38:13;5.22;;;4.60;;
4517;SDS011;2271;49.464;11.070;2022-07-22T09:40:44;5.28;;;4.70;;
4517;SDS011;2271;49.464;11.070;2022-07-22T09:43:11;5.97;;;4.53;;
4517;SDS011;2271;49.464;11.070;2022-07-22T09:45:47;6.75;;;5.43;;
4517;SDS011;2271;49.464;11.070;2022-07-22T09:48:22;7.47;;;4.70;;
4517;SDS011;2271;49.464;11.070;2022-07-22T09:50:48;5.55;;;5.05;;
4517;SDS011;2271;49.464;11.070;2022-07-22T09:53:15;4.65;;;4.25;;
4517;SDS011;2271;49.464;11.070;2022-07-22T09:55:42;7.45;;;5.18;;
4517;SDS011;2271;49.464;11.070;2022-07-22T09:58:08;6.78;;;4.65;;
4517;SDS011;2271;49.464;11.070;2022-07-22T10:00:34;5.60;;;4.93;;
4517;SDS011;2271;49.464;11.070;2022-07-22T10:03:02;9.35;;;4.65;;
4517;SDS011;2271;49.464;11.070;2022-07-22T10:05:32;6.57;;;5.18;;
4517;SDS011;2271;49.464;11.070;2022-07-22T10:08:01;5.90;;;4.57;;
4517;SDS011;2271;49.464;11.070;2022-07-22T10:10:29;6.55;;;5.05;;
4517;SDS011;2271;49.464;11.070;2022-07-22T10:12:56;6.78;;;5.05;;
4517;SDS011;2271;49.464;11.070;2022-07-22T10:15:24;8.10;;;4.55;;
4517;SDS011;2271;49.464;11.070;2022-07-22T10:17:52;5.40;;;4.97;;
4517;SDS011;2271;49.464;11.070;2022-07-22T10:20:20;7.20;;;5.30;;
4517;SDS011;2271;49.464;11.070;2022-07-22T10:22:48;7.47;;;4.90;;
4517;SDS011;2271;49.464;11.070;2022-07-22T10:25:17;9.27;;;5.22;;
4517;SDS011;2271;49.464;11.070;2022-07-22T10:30:16;9.13;;;5.95;;
4517;SDS011;2271;49.464;11.070;2022-07-22T10:32:43;10.20;;;5.10;;
4517;SDS011;2271;49.464;11.070;2022-07-22T10:45:22;5.65;;;5.07;;
4517;SDS011;2271;49.464;11.070;2022-07-22T10:47:56;5.10;;;4.68;;
4517;SDS011;2271;49.464;11.070;2022-07-22T10:53:01;6.22;;;5.20;;
4517;SDS011;2271;49.464;11.070;2022-07-22T10:55:32;7.68;;;5.20;;
4517;SDS011;2271;49.464;11.070;2022-07-22T10:57:59;6.97;;;5.68;;
4517;SDS011;2271;49.464;11.070;2022-07-22T11:00:25;7.00;;;5.35;;
4517;SDS011;2271;49.464;11.070;2022-07-22T11:02:51;6.10;;;4.60;;
4517;SDS011;2271;49.464;11.070;2022-07-22T11:05:29;8.20;;;4.90;;
4517;SDS011;2271;49.464;11.070;2022-07-22T11:07:55;6.57;;;5.72;;
4517;SDS011;2271;49.464;11.070;2022-07-22T11:10:21;5.20;;;4.70;;
4517;SDS011;2271;49.464;11.070;2022-07-22T11:12:48;6.05;;;5.00;;
4517;SDS011;2271;49.464;11.070;2022-07-22T11:15:14;5.72;;;5.07;;
4517;SDS011;2271;49.464;11.070;2022-07-22T11:17:40;5.75;;;5.18;;
4517;SDS011;2271;49.464;11.070;2022-07-22T11:20:11;6.95;;;5.50;;
4517;SDS011;2271;49.464;11.070;2022-07-22T11:22:38;7.30;;;5.22;;
4517;SDS011;2271;49.464;11.070;2022-07-22T11:25:06;7.25;;;5.35;;
4517;SDS011;2271;49.464;11.070;2022-07-22T11:27:33;8.77;;;5.13;;
4517;SDS011;2271;49.464;11.070;2022-07-22T11:29:59;5.90;;;5.40;;
4517;SDS011;2271;49.464;11.070;2022-07-22T11:32:25;5.80;;;4.97;;
4517;SDS011;2271;49.464;11.070;2022-07-22T11:34:56;8.13;;;5.07;;
4517;SDS011;2271;49.464;11.070;2022-07-22T11:37:23;6.65;;;5.40;;
4517;SDS011;2271;49.464;11.070;2022-07-22T11:39:51;12.75;;;5.00;;
4517;SDS011;2271;49.464;11.070;2022-07-22T11:42:24;5.68;;;4.75;;
4517;SDS011;2271;49.464;11.070;2022-07-22T11:44:51;6.13;;;4.75;;
4517;SDS011;2271;49.464;11.070;2022-07-22T11:47:16;5.50;;;4.47;;
4517;SDS011;2271;49.464;11.070;2022-07-22T11:49:44;6.15;;;5.38;;
4517;SDS011;2271;49.464;11.070;2022-07-22T11:52:11;5.05;;;4.65;;
4517;SDS011;2271;49.464;11.070;2022-07-22T11:54:37;6.75;;;5.47;;
4517;SDS011;2271;49.464;11.070;2022-07-22T11:57:04;4.57;;;4.18;;
4517;SDS011;2271;49.464;11.070;2022-07-22T11:59:32;5.30;;;4.78;;
4517;SDS011;2271;49.464;11.070;2022-07-22T12:01:58;5.85;;;5.05;;
4517;SDS011;2271;49.464;11.070;2022-07-22T12:04:25;5.82;;;5.05;;
4517;SDS011;2271;49.464;11.070;2022-07-22T12:06:52;5.85;;;4.88;;
4517;SDS011;2271;49.464;11.070;2022-07-22T12:11:47;5.70;;;5.00;;
4517;SDS011;2271;49.464;11.070;2022-07-22T12:14:15;5.90;;;4.88;;
4517;SDS011;2271;49.464;11.070;2022-07-22T12:19:31;5.22;;;4.72;;
4517;SDS011;2271;49.464;11.070;2022-07-22T12:22:00;5.28;;;4.22;;
4517;SDS011;2271;49.464;11.070;2022-07-22T12:27:09;5.28;;;4.60;;
4517;SDS011;2271;49.464;11.070;2022-07-22T12:34:39;5.10;;;4.50;;
4517;SDS011;2271;49.464;11.070;2022-07-22T12:39:53;6.35;;;3.83;;
4517;SDS011;2271;49.464;11.070;2022-07-22T12:42:21;6.13;;;4.75;;
4517;SDS011;2271;49.464;11.070;2022-07-22T12:44:50;5.82;;;5.22;;
4517;SDS011;2271;49.464;11.070;2022-07-22T12:47:37;8.77;;;4.93;;
4517;SDS011;2271;49.464;11.070;2022-07-22T12:52:49;5.05;;;3.85;;
4517;SDS011;2271;49.464;11.070;2022-07-22T12:55:16;5.68;;;4.53;;
4517;SDS011;2271;49.464;11.070;2022-07-22T12:57:41;7.35;;;4.75;;
4517;SDS011;2271;49.464;11.070;2022-07-22T13:00:08;8.02;;;4.55;;
4517;SDS011;2271;49.464;11.070;2022-07-22T13:02:34;5.75;;;4.95;;
4517;SDS011;2271;49.464;11.070;2022-07-22T13:05:00;6.22;;;4.60;;
4517;SDS011;2271;49.464;11.070;2022-07-22T13:07:25;4.97;;;4.43;;
4517;SDS011;2271;49.464;11.070;2022-07-22T13:09:51;5.43;;;4.55;;
4517;SDS011;2271;49.464;11.070;2022-07-22T13:12:17;4.93;;;4.40;;
4517;SDS011;2271;49.464;11.070;2022-07-22T13:14:42;6.20;;;4.28;;
4517;SDS011;2271;49.464;11.070;2022-07-22T13:17:08;8.05;;;5.72;;
4517;SDS011;2271;49.464;11.070;2022-07-22T13:19:34;10.32;;;5.65;;
4517;SDS011;2271;49.464;11.070;2022-07-22T13:21:59;10.15;;;5.90;;
4517;SDS011;2271;49.464;11.070;2022-07-22T13:24:25;4.97;;;4.47;;
4517;SDS011;2271;49.464;11.070;2022-07-22T13:26:51;6.45;;;4.70;;
4517;SDS011;2271;49.464;11.070;2022-07-22T13:29:17;5.43;;;4.80;;
4517;SDS011;2271;49.464;11.070;2022-07-22T13:31:42;4.85;;;3.97;;
4517;SDS011;2271;49.464;11.070;2022-07-22T13:34:08;6.15;;;4.43;;
4517;SDS011;2271;49.464;11.070;2022-07-22T13:36:34;4.20;;;3.83;;
4517;SDS011;2271;49.464;11.070;2022-07-22T13:38:59;7.32;;;4.32;;
4517;SDS011;2271;49.464;11.070;2022-07-22T13:41:26;5.55;;;4.10;;
4517;SDS011;2271;49.464;11.070;2022-07-22T13:43:52;5.40;;;4.05;;
4517;SDS011;2271;49.464;11.070;2022-07-22T13:46:18;5.93;;;3.60;;
4517;SDS011;2271;49.464;11.070;2022-07-22T13:48:44;4.53;;;4.13;;
4517;SDS011;2271;49.464;11.070;2022-07-22T13:51:09;4.65;;;4.03;;
4517;SDS011;2271;49.464;11.070;2022-07-22T13:53:35;4.53;;;4.03;;
4517;SDS011;2271;49.464;11.070;2022-07-22T13:56:01;4.35;;;3.95;;
4517;SDS011;2271;49.464;11.070;2022-07-22T13:58:27;6.38;;;4.50;;
4517;SDS011;2271;49.464;11.070;2022-07-22T14:00:54;6.30;;;4.68;;
4517;SDS011;2271;49.464;11.070;2022-07-22T14:03:20;4.68;;;4.05;;
4517;SDS011;2271;49.464;11.070;2022-07-22T14:05:46;6.10;;;4.35;;
4517;SDS011;2271;49.464;11.070;2022-07-22T14:08:12;5.38;;;4.88;;
4517;SDS011;2271;49.464;11.070;2022-07-22T14:10:37;6.07;;;4.55;;
4517;SDS011;2271;49.464;11.070;2022-07-22T14:13:03;5.30;;;4.80;;
4517;SDS011;2271;49.464;11.070;2022-07-22T14:15:29;4.95;;;4.47;;
4517;SDS011;2271;49.464;11.070;2022-07-22T14:17:54;9.57;;;4.75;;
4517;SDS011;2271;49.464;11.070;2022-07-22T14:20:20;5.18;;;4.57;;
4517;SDS011;2271;49.464;11.070;2022-07-22T14:22:46;5.32;;;4.15;;
4517;SDS011;2271;49.464;11.070;2022-07-22T14:25:11;5.60;;;4.85;;
4517;SDS011;2271;49.464;11.070;2022-07-22T14:27:37;4.55;;;4.07;;
4517;SDS011;2271;49.464;11.070;2022-07-22T14:30:03;4.82;;;4.32;;
4517;SDS011;2271;49.464;11.070;2022-07-22T14:32:29;5.43;;;3.92;;
4517;SDS011;2271;49.464;11.070;2022-07-22T14:34:55;6.07;;;3.80;;
4517;SDS011;2271;49.464;11.070;2022-07-22T14:37:20;4.80;;;4.30;;
4517;SDS011;2271;49.464;11.070;2022-07-22T14:39:47;5.43;;;4.13;;
4517;SDS011;2271;49.464;11.070;2022-07-22T14:42:12;4.90;;;4.40;;
4517;SDS011;2271;49.464;11.070;2022-07-22T14:44:38;5.15;;;4.28;;
4517;SDS011;2271;49.464;11.070;2022-07-22T14:47:04;4.88;;;4.47;;
4517;SDS011;2271;49.464;11.070;2022-07-22T14:49:29;5.93;;;4.15;;
4517;SDS011;2271;49.464;11.070;2022-07-22T14:51:55;5.32;;;4.57;;
4517;SDS011;2271;49.464;11.070;2022-07-22T14:54:21;5.05;;;4.00;;
4517;SDS011;2271;49.464;11.070;2022-07-22T14:56:46;6.63;;;4.65;;
4517;SDS011;2271;49.464;11.070;2022-07-22T14:59:12;7.35;;;3.80;;
4517;SDS011;2271;49.464;11.070;2022-07-22T15:01:37;5.55;;;4.03;;
4517;SDS011;2271;49.464;11.070;2022-07-22T15:04:03;4.75;;;4.35;;
4517;SDS011;2271;49.464;11.070;2022-07-22T15:06:29;5.25;;;4.50;;
4517;SDS011;2271;49.464;11.070;2022-07-22T15:08:54;4.88;;;4.05;;
4517;SDS011;2271;49.464;11.070;2022-07-22T15:11:20;8.60;;;4.22;;
4517;SDS011;2271;49.464;11.070;2022-07-22T15:13:46;5.05;;;3.97;;
4517;SDS011;2271;49.464;11.070;2022-07-22T15:16:12;10.07;;;4.28;;
4517;SDS011;2271;49.464;11.070;2022-07-22T15:18:38;4.53;;;4.13;;
4517;SDS011;2271;49.464;11.070;2022-07-22T15:21:04;4.68;;;4.28;;
4517;SDS011;2271;49.464;11.070;2022-07-22T15:23:29;9.13;;;4.63;;
4517;SDS011;2271;49.464;11.070;2022-07-22T15:25:56;6.40;;;4.40;;
4517;SDS011;2271;49.464;11.070;2022-07-22T15:28:23;4.90;;;4.20;;
4517;SDS011;2271;49.464;11.070;2022-07-22T15:30:48;5.72;;;4.78;;
4517;SDS011;2271;49.464;11.070;2022-07-22T15:33:14;5.13;;;3.90;;